sensor_id;sensor_type;location;lat;lon;timestamp;pressure;altitude;pressure_sealevel;temperature;humidity
11011;BME280;5558;42.702;23.178;2022-08-19T00:01:31;93465.06;;;21.90;59.22
11011;BME280;5558;42.702;23.178;2022-08-19T00:04:00;93469.22;;;21.87;59.24
11011;BME280;5558;42.702;23.178;2022-08-19T00:06:29;93458.31;;;21.84;59.46
11011;BME280;5558;42.702;23.178;2022-08-19T00:08:57;93482.34;;;21.89;59.28
11011;BME280;5558;42.702;23.178;2022-08-19T00:11:26;93466.75;;;21.82;59.24
11011;BME280;5558;42.702;23.178;2022-08-19T00:13:53;93457.88;;;21.69;59.28
11011;BME280;5558;42.702;23.178;2022-08-19T00:16:20;93476.66;;;21.78;59.73
11011;BME280;5558;42.702;23.178;2022-08-19T00:18:47;93484.50;;;21.83;59.64
11011;BME280;5558;42.702;23.178;2022-08-19T00:21:15;93491.47;;;21.84;59.77
11011;BME280;5558;42.702;23.178;2022-08-19T00:23:43;93485.16;;;21.80;60.89
11011;BME280;5558;42.702;23.178;2022-08-19T00:26:10;93489.34;;;21.77;60.59
11011;BME280;5558;42.702;23.178;2022-08-19T00:28:37;93490.25;;;21.82;60.89
11011;BME280;5558;42.702;23.178;2022-08-19T00:31:04;93479.88;;;21.84;61.01
11011;BME280;5558;42.702;23.178;2022-08-19T00:33:32;93480.56;;;21.81;60.86
11011;BME280;5558;42.702;23.178;2022-08-19T00:35:59;93476.16;;;21.64;60.97
11011;BME280;5558;42.702;23.178;2022-08-19T00:38:27;93479.34;;;21.78;61.21
11011;BME280;5558;42.702;23.178;2022-08-19T00:40:56;93478.88;;;21.76;61.31
11011;BME280;5558;42.702;23.178;2022-08-19T00:43:24;93480.00;;;21.63;61.29
11011;BME280;5558;42.702;23.178;2022-08-19T00:45:51;93477.09;;;21.68;62.25
11011;BME280;5558;42.702;23.178;2022-08-19T00:48:19;93474.84;;;21.58;62.41
11011;BME280;5558;42.702;23.178;2022-08-19T00:50:48;93473.03;;;21.62;61.86
11011;BME280;5558;42.702;23.178;2022-08-19T00:53:19;93471.47;;;21.61;61.70
11011;BME280;5558;42.702;23.178;2022-08-19T00:55:48;93475.50;;;21.67;61.42
11011;BME280;5558;42.702;23.178;2022-08-19T00:58:21;93458.22;;;21.68;61.12
11011;BME280;5558;42.702;23.178;2022-08-19T01:00:48;93463.28;;;21.69;60.74
11011;BME280;5558;42.702;23.178;2022-08-19T01:03:20;93469.13;;;21.71;60.33
11011;BME280;5558;42.702;23.178;2022-08-19T01:05:48;93475.16;;;21.68;60.80
11011;BME280;5558;42.702;23.178;2022-08-19T01:08:17;93471.47;;;21.61;61.17
11011;BME280;5558;42.702;23.178;2022-08-19T01:10:48;93466.66;;;21.54;61.40
11011;BME280;5558;42.702;23.178;2022-08-19T01:13:22;93485.38;;;21.51;61.17
11011;BME280;5558;42.702;23.178;2022-08-19T01:15:53;93474.38;;;21.56;62.16
11011;BME280;5558;42.702;23.178;2022-08-19T01:18:21;93474.25;;;21.52;63.16
11011;BME280;5558;42.702;23.178;2022-08-19T01:20:48;93467.84;;;21.45;62.97
11011;BME280;5558;42.702;23.178;2022-08-19T01:23:17;93460.34;;;21.38;62.68
11011;BME280;5558;42.702;23.178;2022-08-19T01:25:47;93461.56;;;21.29;63.10
11011;BME280;5558;42.702;23.178;2022-08-19T01:28:17;93457.09;;;21.21;63.98
11011;BME280;5558;42.702;23.178;2022-08-19T01:30:45;93458.53;;;21.18;64.43
11011;BME280;5558;42.702;23.178;2022-08-19T01:33:13;93443.34;;;21.02;64.64
11011;BME280;5558;42.702;23.178;2022-08-19T01:35:41;93442.69;;;21.05;65.16
11011;BME280;5558;42.702;23.178;2022-08-19T01:38:10;93467.59;;;21.02;64.99
11011;BME280;5558;42.702;23.178;2022-08-19T01:40:46;93455.19;;;20.89;65.80
11011;BME280;5558;42.702;23.178;2022-08-19T01:43:13;93470.09;;;20.86;66.26
11011;BME280;5558;42.702;23.178;2022-08-19T01:45:40;93476.09;;;20.71;67.82
11011;BME280;5558;42.702;23.178;2022-08-19T01:48:07;93478.72;;;20.59;67.98
11011;BME280;5558;42.702;23.178;2022-08-19T01:50:36;93484.44;;;20.57;67.91
11011;BME280;5558;42.702;23.178;2022-08-19T01:53:05;93481.47;;;20.71;67.48
11011;BME280;5558;42.702;23.178;2022-08-19T01:55:33;93465.78;;;20.73;66.75
11011;BME280;5558;42.702;23.178;2022-08-19T01:58:04;93477.81;;;20.88;66.07
11011;BME280;5558;42.702;23.178;2022-08-19T02:00:32;93470.09;;;20.86;66.07
11011;BME280;5558;42.702;23.178;2022-08-19T02:02:59;93471.75;;;20.91;65.23
11011;BME280;5558;42.702;23.178;2022-08-19T02:05:26;93476.25;;;20.87;65.12
11011;BME280;5558;42.702;23.178;2022-08-19T02:07:54;93462.25;;;20.93;65.34
11011;BME280;5558;42.702;23.178;2022-08-19T02:10:22;93464.81;;;20.90;66.03
11011;BME280;5558;42.702;23.178;2022-08-19T02:12:49;93466.94;;;20.84;65.84
11011;BME280;5558;42.702;23.178;2022-08-19T02:15:18;93464.56;;;20.83;66.32
11011;BME280;5558;42.702;23.178;2022-08-19T02:17:46;93467.41;;;20.86;66.47
11011;BME280;5558;42.702;23.178;2022-08-19T02:20:13;93466.03;;;20.80;66.58
11011;BME280;5558;42.702;23.178;2022-08-19T02:22:40;93475.25;;;20.58;68.14
11011;BME280;5558;42.702;23.178;2022-08-19T02:25:08;93467.72;;;20.52;68.54
11011;BME280;5558;42.702;23.178;2022-08-19T02:27:35;93465.81;;;20.52;68.69
11011;BME280;5558;42.702;23.178;2022-08-19T02:30:04;93470.19;;;20.57;68.71
11011;BME280;5558;42.702;23.178;2022-08-19T02:32:33;93472.31;;;20.51;68.59
11011;BME280;5558;42.702;23.178;2022-08-19T02:35:00;93470.75;;;20.50;68.38
11011;BME280;5558;42.702;23.178;2022-08-19T02:37:27;93468.06;;;20.50;67.99
11011;BME280;5558;42.702;23.178;2022-08-19T02:40:11;93466.34;;;20.46;68.71
11011;BME280;5558;42.702;23.178;2022-08-19T02:42:38;93474.56;;;20.49;68.95
11011;BME280;5558;42.702;23.178;2022-08-19T02:45:06;93468.97;;;20.54;68.67
11011;BME280;5558;42.702;23.178;2022-08-19T02:47:34;93470.28;;;20.48;68.66
11011;BME280;5558;42.702;23.178;2022-08-19T02:50:02;93461.88;;;20.50;69.44
11011;BME280;5558;42.702;23.178;2022-08-19T02:52:29;93468.38;;;20.49;69.51
11011;BME280;5558;42.702;23.178;2022-08-19T02:54:57;93478.47;;;20.52;69.05
11011;BME280;5558;42.702;23.178;2022-08-19T02:57:25;93479.28;;;20.52;68.70
11011;BME280;5558;42.702;23.178;2022-08-19T02:59:53;93462.75;;;20.42;68.33
11011;BME280;5558;42.702;23.178;2022-08-19T03:02:20;93477.13;;;20.46;68.77
11011;BME280;5558;42.702;23.178;2022-08-19T03:04:48;93481.50;;;20.50;68.56
11011;BME280;5558;42.702;23.178;2022-08-19T03:07:15;93476.66;;;20.44;68.57
11011;BME280;5558;42.702;23.178;2022-08-19T03:09:42;93462.88;;;20.25;69.21
11011;BME280;5558;42.702;23.178;2022-08-19T03:12:09;93473.31;;;20.26;69.63
11011;BME280;5558;42.702;23.178;2022-08-19T03:14:37;93473.84;;;20.20;70.60
11011;BME280;5558;42.702;23.178;2022-08-19T03:17:04;93478.31;;;20.16;71.25
11011;BME280;5558;42.702;23.178;2022-08-19T03:19:31;93481.03;;;20.07;71.61
11011;BME280;5558;42.702;23.178;2022-08-19T03:22:00;93476.47;;;19.99;71.83
11011;BME280;5558;42.702;23.178;2022-08-19T03:24:27;93489.53;;;19.89;72.18
11011;BME280;5558;42.702;23.178;2022-08-19T03:26:56;93478.44;;;19.90;72.67
11011;BME280;5558;42.702;23.178;2022-08-19T03:29:24;93483.50;;;19.92;73.00
11011;BME280;5558;42.702;23.178;2022-08-19T03:31:51;93482.28;;;19.81;73.55
11011;BME280;5558;42.702;23.178;2022-08-19T03:34:20;93483.19;;;19.64;74.13
11011;BME280;5558;42.702;23.178;2022-08-19T03:36:47;93489.78;;;19.37;74.50
11011;BME280;5558;42.702;23.178;2022-08-19T03:39:16;93483.75;;;19.40;74.52
11011;BME280;5558;42.702;23.178;2022-08-19T03:41:46;93481.41;;;19.39;74.91
11011;BME280;5558;42.702;23.178;2022-08-19T03:44:16;93491.41;;;19.59;74.11
11011;BME280;5558;42.702;23.178;2022-08-19T03:46:47;93497.50;;;19.77;73.30
11011;BME280;5558;42.702;23.178;2022-08-19T03:49:15;93499.47;;;19.88;72.56
11011;BME280;5558;42.702;23.178;2022-08-19T03:51:42;93501.97;;;19.93;72.72
11011;BME280;5558;42.702;23.178;2022-08-19T03:54:11;93498.91;;;20.03;72.34
11011;BME280;5558;42.702;23.178;2022-08-19T03:56:41;93493.34;;;20.08;72.50
11011;BME280;5558;42.702;23.178;2022-08-19T03:59:11;93496.94;;;20.21;71.40
11011;BME280;5558;42.702;23.178;2022-08-19T04:01:39;93502.34;;;20.53;69.68
11011;BME280;5558;42.702;23.178;2022-08-19T04:04:06;93506.13;;;20.73;69.04
11011;BME280;5558;42.702;23.178;2022-08-19T04:06:35;93508.63;;;20.99;68.03
11011;BME280;5558;42.702;23.178;2022-08-19T04:09:04;93499.81;;;21.22;66.60
11011;BME280;5558;42.702;23.178;2022-08-19T04:11:34;93498.72;;;21.35;65.55
11011;BME280;5558;42.702;23.178;2022-08-19T04:14:02;93499.94;;;21.26;66.59
11011;BME280;5558;42.702;23.178;2022-08-19T04:16:29;93505.09;;;21.31;65.77
11011;BME280;5558;42.702;23.178;2022-08-19T04:18:59;93508.66;;;21.80;64.65
11011;BME280;5558;42.702;23.178;2022-08-19T04:21:28;93508.19;;;22.14;62.91
11011;BME280;5558;42.702;23.178;2022-08-19T04:23:55;93514.19;;;22.47;61.00
11011;BME280;5558;42.702;23.178;2022-08-19T04:26:25;93524.00;;;22.79;60.36
11011;BME280;5558;42.702;23.178;2022-08-19T04:28:53;93494.00;;;22.96;59.18
11011;BME280;5558;42.702;23.178;2022-08-19T04:31:23;93509.97;;;23.44;57.83
11011;BME280;5558;42.702;23.178;2022-08-19T04:33:51;93519.81;;;23.83;56.18
11011;BME280;5558;42.702;23.178;2022-08-19T04:36:21;93513.31;;;23.84;54.20
11011;BME280;5558;42.702;23.178;2022-08-19T04:38:49;93516.88;;;24.04;53.30
11011;BME280;5558;42.702;23.178;2022-08-19T04:41:16;93504.81;;;24.17;52.84
11011;BME280;5558;42.702;23.178;2022-08-19T04:44:01;93511.03;;;24.52;52.39
11011;BME280;5558;42.702;23.178;2022-08-19T04:46:30;93515.31;;;25.10;51.25
11011;BME280;5558;42.702;23.178;2022-08-19T04:48:57;93508.47;;;25.36;50.32
11011;BME280;5558;42.702;23.178;2022-08-19T04:51:24;93510.78;;;25.79;50.22
11011;BME280;5558;42.702;23.178;2022-08-19T04:53:51;93516.19;;;26.24;49.90
11011;BME280;5558;42.702;23.178;2022-08-19T04:56:20;93521.28;;;26.81;48.70
11011;BME280;5558;42.702;23.178;2022-08-19T04:58:48;93524.72;;;27.08;46.81
11011;BME280;5558;42.702;23.178;2022-08-19T05:01:18;93520.66;;;27.57;45.83
11011;BME280;5558;42.702;23.178;2022-08-19T05:03:46;93522.91;;;27.89;46.15
11011;BME280;5558;42.702;23.178;2022-08-19T05:06:14;93529.78;;;28.19;45.39
11011;BME280;5558;42.702;23.178;2022-08-19T05:08:42;93533.81;;;28.36;43.67
11011;BME280;5558;42.702;23.178;2022-08-19T05:11:12;93527.63;;;28.42;42.66
11011;BME280;5558;42.702;23.178;2022-08-19T05:13:39;93530.16;;;28.18;42.29
11011;BME280;5558;42.702;23.178;2022-08-19T05:16:06;93532.31;;;27.58;43.94
11011;BME280;5558;42.702;23.178;2022-08-19T05:18:33;93528.41;;;27.22;43.65
11011;BME280;5558;42.702;23.178;2022-08-19T05:21:19;93532.25;;;27.21;44.50
11011;BME280;5558;42.702;23.178;2022-08-19T05:24:04;93531.19;;;27.63;44.74
11011;BME280;5558;42.702;23.178;2022-08-19T05:26:34;93532.31;;;27.95;44.02
11011;BME280;5558;42.702;23.178;2022-08-19T05:29:02;93536.72;;;28.60;42.41
11011;BME280;5558;42.702;23.178;2022-08-19T05:31:29;93537.44;;;29.19;41.40
11011;BME280;5558;42.702;23.178;2022-08-19T05:33:55;93536.47;;;29.72;39.44
11011;BME280;5558;42.702;23.178;2022-08-19T05:36:25;93539.63;;;29.96;38.15
11011;BME280;5558;42.702;23.178;2022-08-19T05:38:52;93534.56;;;30.71;38.04
11011;BME280;5558;42.702;23.178;2022-08-19T05:41:19;93545.75;;;31.26;36.65
11011;BME280;5558;42.702;23.178;2022-08-19T05:43:46;93537.69;;;31.84;35.13
11011;BME280;5558;42.702;23.178;2022-08-19T05:46:16;93524.09;;;32.73;34.01
11011;BME280;5558;42.702;23.178;2022-08-19T05:48:43;93539.22;;;33.62;32.58
11011;BME280;5558;42.702;23.178;2022-08-19T05:51:10;93547.75;;;34.51;31.75
11011;BME280;5558;42.702;23.178;2022-08-19T05:53:38;93534.22;;;34.64;31.55
11011;BME280;5558;42.702;23.178;2022-08-19T05:56:06;93538.91;;;35.29;30.50
11011;BME280;5558;42.702;23.178;2022-08-19T05:58:33;93532.91;;;35.14;30.47
11011;BME280;5558;42.702;23.178;2022-08-19T06:00:59;93540.56;;;35.46;29.62
11011;BME280;5558;42.702;23.178;2022-08-19T06:03:29;93548.44;;;36.03;29.63
11011;BME280;5558;42.702;23.178;2022-08-19T06:05:56;93546.03;;;37.33;28.29
11011;BME280;5558;42.702;23.178;2022-08-19T06:08:25;93547.00;;;37.55;28.04
11011;BME280;5558;42.702;23.178;2022-08-19T06:10:53;93558.06;;;38.09;27.13
11011;BME280;5558;42.702;23.178;2022-08-19T06:13:21;93557.97;;;38.13;27.00
11011;BME280;5558;42.702;23.178;2022-08-19T06:15:49;93555.84;;;37.92;27.15
11011;BME280;5558;42.702;23.178;2022-08-19T06:18:16;93558.00;;;38.75;26.13
11011;BME280;5558;42.702;23.178;2022-08-19T06:20:44;93552.59;;;38.72;26.42
11011;BME280;5558;42.702;23.178;2022-08-19T06:23:11;93552.81;;;38.77;26.27
11011;BME280;5558;42.702;23.178;2022-08-19T06:25:38;93555.53;;;38.15;27.00
11011;BME280;5558;42.702;23.178;2022-08-19T06:28:07;93545.94;;;38.19;26.48
11011;BME280;5558;42.702;23.178;2022-08-19T06:30:35;93557.03;;;38.44;26.48
11011;BME280;5558;42.702;23.178;2022-08-19T06:33:02;93555.56;;;38.65;27.02
11011;BME280;5558;42.702;23.178;2022-08-19T06:35:29;93551.53;;;37.91;27.74
11011;BME280;5558;42.702;23.178;2022-08-19T06:37:56;93549.25;;;37.32;28.32
11011;BME280;5558;42.702;23.178;2022-08-19T06:40:23;93549.47;;;36.60;29.61
11011;BME280;5558;42.702;23.178;2022-08-19T06:42:49;93548.25;;;35.94;30.34
11011;BME280;5558;42.702;23.178;2022-08-19T06:45:18;93549.88;;;35.52;30.90
11011;BME280;5558;42.702;23.178;2022-08-19T06:47:45;93549.63;;;35.04;31.88
11011;BME280;5558;42.702;23.178;2022-08-19T06:50:13;93550.25;;;34.88;32.17
11011;BME280;5558;42.702;23.178;2022-08-19T06:52:40;93549.16;;;34.86;32.47
11011;BME280;5558;42.702;23.178;2022-08-19T06:55:08;93551.03;;;35.12;31.64
11011;BME280;5558;42.702;23.178;2022-08-19T06:57:35;93558.97;;;35.29;32.07
11011;BME280;5558;42.702;23.178;2022-08-19T07:00:04;93560.22;;;35.48;31.61
11011;BME280;5558;42.702;23.178;2022-08-19T07:02:35;93560.00;;;35.58;31.03
11011;BME280;5558;42.702;23.178;2022-08-19T07:05:03;93556.06;;;35.76;31.50
11011;BME280;5558;42.702;23.178;2022-08-19T07:07:30;93556.75;;;35.64;31.18
11011;BME280;5558;42.702;23.178;2022-08-19T07:09:57;93561.91;;;35.38;31.77
11011;BME280;5558;42.702;23.178;2022-08-19T07:12:24;93554.09;;;35.17;31.66
11011;BME280;5558;42.702;23.178;2022-08-19T07:14:51;93560.88;;;35.13;31.41
11011;BME280;5558;42.702;23.178;2022-08-19T07:17:18;93554.16;;;34.68;32.24
11011;BME280;5558;42.702;23.178;2022-08-19T07:19:46;93557.78;;;34.84;32.48
11011;BME280;5558;42.702;23.178;2022-08-19T07:22:15;93567.91;;;34.68;32.10
11011;BME280;5558;42.702;23.178;2022-08-19T07:24:43;93561.19;;;34.72;32.75
11011;BME280;5558;42.702;23.178;2022-08-19T07:27:10;93569.66;;;34.58;32.41
11011;BME280;5558;42.702;23.178;2022-08-19T07:29:42;93566.16;;;34.54;32.21
11011;BME280;5558;42.702;23.178;2022-08-19T07:32:09;93563.72;;;34.60;33.16
11011;BME280;5558;42.702;23.178;2022-08-19T07:34:37;93540.72;;;34.50;32.05
11011;BME280;5558;42.702;23.178;2022-08-19T07:37:06;93559.25;;;34.69;32.40
11011;BME280;5558;42.702;23.178;2022-08-19T07:39:35;93558.34;;;34.53;33.24
11011;BME280;5558;42.702;23.178;2022-08-19T07:42:06;93559.38;;;34.35;33.04
11011;BME280;5558;42.702;23.178;2022-08-19T07:44:33;93567.66;;;34.32;32.90
11011;BME280;5558;42.702;23.178;2022-08-19T07:47:01;93563.69;;;34.10;33.19
11011;BME280;5558;42.702;23.178;2022-08-19T07:49:28;93554.53;;;33.90;34.25
11011;BME280;5558;42.702;23.178;2022-08-19T07:51:57;93564.84;;;33.82;33.94
11011;BME280;5558;42.702;23.178;2022-08-19T07:54:32;93559.47;;;34.02;34.15
11011;BME280;5558;42.702;23.178;2022-08-19T07:57:03;93562.31;;;34.25;33.02
11011;BME280;5558;42.702;23.178;2022-08-19T07:59:30;93565.88;;;33.92;34.35
11011;BME280;5558;42.702;23.178;2022-08-19T08:01:57;93575.25;;;33.98;33.92
11011;BME280;5558;42.702;23.178;2022-08-19T08:04:25;93556.03;;;32.93;35.92
11011;BME280;5558;42.702;23.178;2022-08-19T08:07:10;93558.88;;;31.66;36.64
11011;BME280;5558;42.702;23.178;2022-08-19T08:09:55;93565.09;;;31.81;37.19
11011;BME280;5558;42.702;23.178;2022-08-19T08:12:25;93554.06;;;31.95;36.78
11011;BME280;5558;42.702;23.178;2022-08-19T08:14:56;93557.38;;;31.58;37.15
11011;BME280;5558;42.702;23.178;2022-08-19T08:17:25;93550.50;;;31.15;38.33
11011;BME280;5558;42.702;23.178;2022-08-19T08:19:52;93548.47;;;31.26;37.17
11011;BME280;5558;42.702;23.178;2022-08-19T08:22:21;93545.47;;;30.92;38.30
11011;BME280;5558;42.702;23.178;2022-08-19T08:25:09;93550.88;;;31.17;35.60
11011;BME280;5558;42.702;23.178;2022-08-19T08:27:37;93545.84;;;30.98;35.93
11011;BME280;5558;42.702;23.178;2022-08-19T08:30:05;93547.06;;;30.90;36.19
11011;BME280;5558;42.702;23.178;2022-08-19T08:32:34;93536.06;;;30.97;36.63
11011;BME280;5558;42.702;23.178;2022-08-19T08:35:01;93539.88;;;31.24;35.85
11011;BME280;5558;42.702;23.178;2022-08-19T08:37:28;93541.81;;;31.41;35.74
11011;BME280;5558;42.702;23.178;2022-08-19T08:39:55;93545.34;;;31.35;36.12
11011;BME280;5558;42.702;23.178;2022-08-19T08:42:29;93541.41;;;31.43;36.20
11011;BME280;5558;42.702;23.178;2022-08-19T08:44:59;93535.06;;;31.63;35.18
11011;BME280;5558;42.702;23.178;2022-08-19T08:47:31;93544.50;;;31.48;35.53
11011;BME280;5558;42.702;23.178;2022-08-19T08:50:03;93540.97;;;31.51;34.49
11011;BME280;5558;42.702;23.178;2022-08-19T08:52:33;93548.69;;;31.74;34.65
11011;BME280;5558;42.702;23.178;2022-08-19T08:55:07;93544.75;;;31.75;33.52
11011;BME280;5558;42.702;23.178;2022-08-19T08:57:40;93540.53;;;31.63;32.24
11011;BME280;5558;42.702;23.178;2022-08-19T09:00:15;93533.97;;;31.47;33.75
11011;BME280;5558;42.702;23.178;2022-08-19T09:02:43;93538.25;;;31.51;33.95
11011;BME280;5558;42.702;23.178;2022-08-19T09:05:10;93534.03;;;31.33;32.43
11011;BME280;5558;42.702;23.178;2022-08-19T09:07:43;93530.88;;;31.34;32.69
11011;BME280;5558;42.702;23.178;2022-08-19T09:10:20;93529.31;;;31.37;32.95
11011;BME280;5558;42.702;23.178;2022-08-19T09:12:55;93532.06;;;31.40;32.18
11011;BME280;5558;42.702;23.178;2022-08-19T09:15:28;93529.16;;;31.68;32.73
11011;BME280;5558;42.702;23.178;2022-08-19T09:18:00;93524.50;;;31.65;30.58
11011;BME280;5558;42.702;23.178;2022-08-19T09:20:29;93526.81;;;31.67;30.73
11011;BME280;5558;42.702;23.178;2022-08-19T09:22:56;93524.09;;;31.67;31.03
11011;BME280;5558;42.702;23.178;2022-08-19T09:25:25;93520.25;;;31.57;29.75
11011;BME280;5558;42.702;23.178;2022-08-19T09:27:54;93520.53;;;31.73;30.12
11011;BME280;5558;42.702;23.178;2022-08-19T09:30:25;93521.03;;;31.54;29.33
11011;BME280;5558;42.702;23.178;2022-08-19T09:32:52;93519.81;;;31.66;30.04
11011;BME280;5558;42.702;23.178;2022-08-19T09:35:20;93505.28;;;31.72;30.24
11011;BME280;5558;42.702;23.178;2022-08-19T09:37:48;93508.38;;;31.78;29.88
11011;BME280;5558;42.702;23.178;2022-08-19T09:40:16;93511.13;;;31.78;30.98
11011;BME280;5558;42.702;23.178;2022-08-19T09:42:43;93509.09;;;31.92;29.59
11011;BME280;5558;42.702;23.178;2022-08-19T09:45:14;93515.25;;;32.07;29.89
11011;BME280;5558;42.702;23.178;2022-08-19T09:47:40;93513.41;;;31.90;30.77
11011;BME280;5558;42.702;23.178;2022-08-19T09:50:09;93508.38;;;31.81;30.57
11011;BME280;5558;42.702;23.178;2022-08-19T09:52:37;93495.59;;;31.61;28.87
11011;BME280;5558;42.702;23.178;2022-08-19T09:55:04;93501.53;;;31.45;29.88
11011;BME280;5558;42.702;23.178;2022-08-19T09:57:31;93500.19;;;31.74;30.03
11011;BME280;5558;42.702;23.178;2022-08-19T09:59:58;93493.88;;;31.84;30.13
11011;BME280;5558;42.702;23.178;2022-08-19T10:02:26;93492.19;;;32.04;30.46
11011;BME280;5558;42.702;23.178;2022-08-19T10:04:53;93494.47;;;32.13;28.26
11011;BME280;5558;42.702;23.178;2022-08-19T10:07:37;93487.44;;;32.08;26.89
11011;BME280;5558;42.702;23.178;2022-08-19T10:10:05;93487.94;;;32.00;27.80
11011;BME280;5558;42.702;23.178;2022-08-19T10:12:32;93494.47;;;32.13;27.07
11011;BME280;5558;42.702;23.178;2022-08-19T10:14:59;93488.38;;;31.91;27.30
11011;BME280;5558;42.702;23.178;2022-08-19T10:17:28;93488.50;;;31.67;27.97
11011;BME280;5558;42.702;23.178;2022-08-19T10:19:55;93481.16;;;31.53;29.01
11011;BME280;5558;42.702;23.178;2022-08-19T10:22:22;93492.53;;;31.48;28.58
11011;BME280;5558;42.702;23.178;2022-08-19T10:24:49;93476.44;;;31.61;28.87
11011;BME280;5558;42.702;23.178;2022-08-19T10:27:16;93477.44;;;31.88;29.21
11011;BME280;5558;42.702;23.178;2022-08-19T10:29:43;93481.56;;;32.13;28.84
11011;BME280;5558;42.702;23.178;2022-08-19T10:32:10;93469.19;;;32.36;27.84
11011;BME280;5558;42.702;23.178;2022-08-19T10:34:38;93477.59;;;32.18;27.77
11011;BME280;5558;42.702;23.178;2022-08-19T10:37:05;93459.94;;;32.22;28.92
11011;BME280;5558;42.702;23.178;2022-08-19T10:39:34;93462.94;;;32.42;29.69
11011;BME280;5558;42.702;23.178;2022-08-19T10:42:04;93466.84;;;32.38;28.01
11011;BME280;5558;42.702;23.178;2022-08-19T10:44:31;93465.28;;;32.37;27.67
11011;BME280;5558;42.702;23.178;2022-08-19T10:47:00;93465.53;;;32.53;27.97
11011;BME280;5558;42.702;23.178;2022-08-19T10:49:27;93471.31;;;32.65;27.70
11011;BME280;5558;42.702;23.178;2022-08-19T10:51:56;93468.03;;;32.77;28.43
11011;BME280;5558;42.702;23.178;2022-08-19T10:54:55;93462.91;;;32.83;28.45
11011;BME280;5558;42.702;23.178;2022-08-19T10:57:39;93459.00;;;32.80;29.98
11011;BME280;5558;42.702;23.178;2022-08-19T11:00:07;93457.06;;;32.40;29.67
11011;BME280;5558;42.702;23.178;2022-08-19T11:02:34;93454.38;;;32.33;29.43
11011;BME280;5558;42.702;23.178;2022-08-19T11:05:03;93448.41;;;32.45;29.76
11011;BME280;5558;42.702;23.178;2022-08-19T11:07:31;93455.47;;;32.43;29.36
11011;BME280;5558;42.702;23.178;2022-08-19T11:09:58;93448.41;;;31.97;29.78
11011;BME280;5558;42.702;23.178;2022-08-19T11:12:25;93450.13;;;32.25;29.47
11011;BME280;5558;42.702;23.178;2022-08-19T11:14:53;93446.84;;;32.44;29.23
11011;BME280;5558;42.702;23.178;2022-08-19T11:17:20;93449.50;;;32.51;28.90
11011;BME280;5558;42.702;23.178;2022-08-19T11:19:49;93443.81;;;32.72;29.18
11011;BME280;5558;42.702;23.178;2022-08-19T11:22:15;93449.75;;;32.67;29.49
11011;BME280;5558;42.702;23.178;2022-08-19T11:24:44;93442.22;;;32.75;28.30
11011;BME280;5558;42.702;23.178;2022-08-19T11:27:10;93446.00;;;32.88;28.57
11011;BME280;5558;42.702;23.178;2022-08-19T11:29:38;93444.53;;;32.76;29.58
11011;BME280;5558;42.702;23.178;2022-08-19T11:32:07;93440.47;;;32.91;28.06
11011;BME280;5558;42.702;23.178;2022-08-19T11:34:34;93429.88;;;32.90;28.69
11011;BME280;5558;42.702;23.178;2022-08-19T11:37:03;93437.78;;;32.88;29.34
11011;BME280;5558;42.702;23.178;2022-08-19T11:39:32;93431.25;;;32.75;28.12
11011;BME280;5558;42.702;23.178;2022-08-19T11:42:03;93427.94;;;32.90;29.02
11011;BME280;5558;42.702;23.178;2022-08-19T11:44:51;93425.13;;;32.97;29.09
11011;BME280;5558;42.702;23.178;2022-08-19T11:47:18;93423.88;;;33.02;29.09
11011;BME280;5558;42.702;23.178;2022-08-19T11:49:45;93416.53;;;32.95;28.91
11011;BME280;5558;42.702;23.178;2022-08-19T11:52:12;93417.22;;;33.03;28.50
11011;BME280;5558;42.702;23.178;2022-08-19T11:54:39;93414.59;;;33.22;28.99
11011;BME280;5558;42.702;23.178;2022-08-19T11:57:07;93420.09;;;33.22;27.91
11011;BME280;5558;42.702;23.178;2022-08-19T11:59:33;93416.34;;;33.09;27.57
11011;BME280;5558;42.702;23.178;2022-08-19T12:02:00;93410.69;;;32.90;27.57
11011;BME280;5558;42.702;23.178;2022-08-19T12:04:27;93413.28;;;33.04;27.89
11011;BME280;5558;42.702;23.178;2022-08-19T12:06:54;93394.09;;;33.30;27.89
11011;BME280;5558;42.702;23.178;2022-08-19T12:09:20;93395.91;;;33.44;28.52
11011;BME280;5558;42.702;23.178;2022-08-19T12:11:47;93392.41;;;33.40;27.97
11011;BME280;5558;42.702;23.178;2022-08-19T12:14:17;93385.44;;;33.32;27.33
11011;BME280;5558;42.702;23.178;2022-08-19T12:16:45;93389.81;;;33.29;26.87
11011;BME280;5558;42.702;23.178;2022-08-19T12:19:12;93392.28;;;33.20;27.74
11011;BME280;5558;42.702;23.178;2022-08-19T12:21:39;93393.91;;;33.18;27.15
11011;BME280;5558;42.702;23.178;2022-08-19T12:24:06;93383.84;;;33.08;27.00
11011;BME280;5558;42.702;23.178;2022-08-19T12:26:34;93387.47;;;33.01;27.57
11011;BME280;5558;42.702;23.178;2022-08-19T12:29:01;93374.00;;;33.10;27.78
11011;BME280;5558;42.702;23.178;2022-08-19T12:31:29;93346.31;;;32.68;27.50
11011;BME280;5558;42.702;23.178;2022-08-19T12:33:57;93377.47;;;32.84;28.06
11011;BME280;5558;42.702;23.178;2022-08-19T12:36:27;93379.50;;;33.10;28.13
11011;BME280;5558;42.702;23.178;2022-08-19T12:38:54;93359.88;;;33.12;27.52
11011;BME280;5558;42.702;23.178;2022-08-19T12:41:23;93372.25;;;33.23;27.80
11011;BME280;5558;42.702;23.178;2022-08-19T12:43:50;93364.69;;;33.04;28.64
11011;BME280;5558;42.702;23.178;2022-08-19T12:46:18;93362.41;;;32.99;27.65
11011;BME280;5558;42.702;23.178;2022-08-19T12:48:47;93369.28;;;32.81;27.79
11011;BME280;5558;42.702;23.178;2022-08-19T12:51:16;93369.53;;;32.90;27.53
11011;BME280;5558;42.702;23.178;2022-08-19T12:53:46;93356.84;;;33.06;27.70
11011;BME280;5558;42.702;23.178;2022-08-19T12:56:13;93358.94;;;33.22;28.24
11011;BME280;5558;42.702;23.178;2022-08-19T12:58:41;93355.16;;;33.39;28.02
11011;BME280;5558;42.702;23.178;2022-08-19T13:01:09;93345.59;;;33.24;28.95
11011;BME280;5558;42.702;23.178;2022-08-19T13:03:37;93342.75;;;33.31;28.22
11011;BME280;5558;42.702;23.178;2022-08-19T13:06:06;93342.78;;;33.27;28.31
11011;BME280;5558;42.702;23.178;2022-08-19T13:08:33;93324.88;;;33.19;28.90